createdAt,value
2022-08-02T00:01:06.603Z,12.50
2022-08-02T00:03:35.638Z,12.50
2022-08-02T00:06:04.814Z,12.50
2022-08-02T00:08:35.126Z,12.40
2022-08-02T00:11:04.143Z,12.40
2022-08-02T00:13:33.071Z,12.40
2022-08-02T00:16:02.144Z,12.30
2022-08-02T00:18:31.106Z,12.30
2022-08-02T00:21:00.188Z,12.30
2022-08-02T00:23:29.170Z,12.30
2022-08-02T00:26:00.078Z,12.20
2022-08-02T00:28:29.477Z,12.20
2022-08-02T00:30:59.015Z,12.20
2022-08-02T00:34:27.246Z,12.20
2022-08-02T00:36:17.763Z,12.10
2022-08-02T00:38:46.833Z,12.10
2022-08-02T00:41:19.933Z,12.10
2022-08-02T00:43:50.908Z,12.10
2022-08-02T00:46:21.319Z,12.10
2022-08-02T00:48:51.149Z,12.10
2022-08-02T00:51:20.210Z,12.10
2022-08-02T00:53:49.602Z,12.00
2022-08-02T00:56:20.102Z,12.00
2022-08-02T00:58:49.101Z,12.00
2022-08-02T01:01:18.256Z,12.00
2022-08-02T01:03:47.370Z,12.00
2022-08-02T01:06:16.288Z,12.00
2022-08-02T01:08:45.350Z,11.90
2022-08-02T01:11:14.343Z,11.90
2022-08-02T01:13:44.895Z,11.90
2022-08-02T01:16:20.783Z,11.90
2022-08-02T01:18:54.687Z,11.90
2022-08-02T01:21:41.722Z,11.80
2022-08-02T01:24:46.582Z,11.80
2022-08-02T01:27:31.343Z,11.80
2022-08-02T01:30:04.114Z,11.80
2022-08-02T01:32:38.703Z,11.80
2022-08-02T01:35:13.431Z,11.80
2022-08-02T01:37:47.237Z,11.70
2022-08-02T01:40:23.227Z,11.70
2022-08-02T01:42:55.411Z,11.70
2022-08-02T01:45:28.260Z,11.70
2022-08-02T01:47:58.501Z,11.70
2022-08-02T01:50:29.881Z,11.70
2022-08-02T01:53:01.828Z,11.60
2022-08-02T01:55:34.902Z,11.70
2022-08-02T01:58:24.740Z,11.60
2022-08-02T02:00:58.984Z,11.60
2022-08-02T02:03:28.960Z,11.60
2022-08-02T02:06:00.263Z,11.60
2022-08-02T02:08:33.114Z,11.50
2022-08-02T02:13:33.484Z,11.50
2022-08-02T02:16:06.571Z,11.50
2022-08-02T02:18:41.704Z,11.50
2022-08-02T02:21:10.592Z,11.40
2022-08-02T02:23:39.691Z,11.50
2022-08-02T02:26:12.363Z,11.50
2022-08-02T02:28:43.001Z,11.40
2022-08-02T02:31:15.723Z,11.40
2022-08-02T02:33:50.903Z,11.40
2022-08-02T02:36:22.744Z,11.40
2022-08-02T02:38:53.903Z,11.40
2022-08-02T02:41:25.262Z,11.30
2022-08-02T02:43:57.359Z,11.30
2022-08-02T02:46:29.463Z,11.30
2022-08-02T02:48:59.718Z,11.30
2022-08-02T02:51:29.882Z,11.20
2022-08-02T02:54:30.874Z,11.20
2022-08-02T02:56:49.705Z,11.20
2022-08-02T02:59:19.505Z,11.20
2022-08-02T03:01:57.128Z,11.20
2022-08-02T03:04:56.143Z,11.20
2022-08-02T03:07:17.626Z,11.20
2022-08-02T03:09:47.268Z,11.20
2022-08-02T03:12:26.869Z,11.20
2022-08-02T03:15:00.071Z,11.20
2022-08-02T03:17:39.763Z,11.20
2022-08-02T03:20:14.067Z,11.20
2022-08-02T03:22:43.331Z,11.20
2022-08-02T03:25:13.534Z,11.20
2022-08-02T03:27:42.591Z,11.30
2022-08-02T03:30:14.567Z,11.30
2022-08-02T03:32:47.075Z,11.30
2022-08-02T03:35:23.312Z,11.30
2022-08-02T03:37:55.676Z,11.30
2022-08-02T03:40:25.630Z,11.40
2022-08-02T03:42:55.312Z,11.30
2022-08-02T03:45:25.792Z,11.40
2022-08-02T03:47:58.753Z,11.40
2022-08-02T03:50:29.471Z,11.40
2022-08-02T03:52:59.219Z,11.50
2022-08-02T03:55:28.178Z,11.50
2022-08-02T03:57:57.151Z,11.50
2022-08-02T04:00:26.312Z,11.60
2022-08-02T04:02:56.778Z,11.60
2022-08-02T04:05:26.346Z,11.70
2022-08-02T04:08:34.235Z,11.80
2022-08-02T04:11:16.745Z,11.80
2022-08-02T04:13:45.949Z,11.80
2022-08-02T04:16:25.528Z,11.90
2022-08-02T04:18:58.336Z,12.00
2022-08-02T04:21:51.292Z,12.00
2022-08-02T04:24:24.301Z,12.10
2022-08-02T04:26:57.845Z,12.20
2022-08-02T04:29:36.914Z,12.30
2022-08-02T04:32:08.816Z,12.50
2022-08-02T04:34:39.383Z,12.60
2022-08-02T04:37:08.699Z,12.70
2022-08-02T04:39:37.982Z,12.80
2022-08-02T04:42:07.926Z,13.00
2022-08-02T04:44:37.893Z,13.10
2022-08-02T04:47:07.510Z,13.20
2022-08-02T04:49:36.493Z,13.30
2022-08-02T04:52:07.261Z,13.50
2022-08-02T04:54:36.260Z,13.60
2022-08-02T04:57:25.377Z,13.80
2022-08-02T04:59:54.737Z,13.90
2022-08-02T05:02:23.834Z,14.00
2022-08-02T05:04:53.080Z,14.20
2022-08-02T05:07:23.370Z,14.30
2022-08-02T05:09:52.225Z,14.50
2022-08-02T05:12:22.444Z,14.60
2022-08-02T05:14:52.499Z,14.70
2022-08-02T05:17:21.351Z,14.90
2022-08-02T05:19:50.311Z,15.00
2022-08-02T05:22:19.176Z,15.20
2022-08-02T05:24:49.590Z,15.30
2022-08-02T05:27:21.471Z,15.40
2022-08-02T05:29:54.145Z,15.60
2022-08-02T05:32:26.180Z,15.70
2022-08-02T05:34:55.248Z,15.90
2022-08-02T11:47:13.033Z,25.70
2022-08-02T11:49:43.127Z,25.10
2022-08-02T11:52:12.563Z,25.30
2022-08-02T12:02:06.966Z,25.80
2022-08-02T12:04:38.479Z,26.10
2022-08-02T12:07:08.598Z,26.40
2022-08-02T12:17:17.105Z,26.70
2022-08-02T12:19:48.294Z,26.70
2022-08-02T12:22:19.279Z,27.00
2022-08-02T12:24:54.902Z,27.30
2022-08-02T12:27:31.952Z,27.70
2022-08-02T12:42:01.330Z,27.90
2022-08-02T14:06:09.533Z,37.80
2022-08-02T14:08:38.829Z,38.50
2022-08-02T14:11:07.854Z,37.90
2022-08-02T14:13:36.829Z,35.70
2022-08-02T14:16:06.206Z,33.80
2022-08-02T14:18:35.136Z,33.10
2022-08-02T14:21:04.225Z,32.50
2022-08-02T14:23:49.198Z,31.30
2022-08-02T16:35:22.360Z,26.60
2022-08-02T16:37:53.062Z,26.30
2022-08-02T16:40:22.671Z,26.00
2022-08-02T16:42:51.670Z,25.50
2022-08-02T16:45:21.463Z,25.20
2022-08-02T16:47:55.247Z,25.00
2022-08-02T16:50:29.711Z,24.70
2022-08-02T16:53:00.193Z,24.50
2022-08-02T16:55:36.314Z,24.10
2022-08-02T16:58:09.642Z,23.90
2022-08-02T17:00:42.641Z,23.70
2022-08-02T17:03:15.558Z,23.50
2022-08-02T17:05:55.929Z,23.30
2022-08-02T17:08:32.121Z,23.20
2022-08-02T17:11:03.766Z,22.90
2022-08-02T17:13:34.137Z,22.80
2022-08-02T17:16:20.733Z,22.60
2022-08-02T17:18:53.426Z,22.50
2022-08-02T17:21:22.372Z,22.40
2022-08-02T17:24:07.901Z,22.30
2022-08-02T17:26:38.611Z,22.10
2022-08-02T17:29:15.386Z,22.00
2022-08-02T17:32:05.034Z,21.80
2022-08-02T17:34:35.506Z,21.70
2022-08-02T17:37:05.618Z,21.60
2022-08-02T17:39:55.562Z,21.50
2022-08-02T17:42:25.700Z,21.40
2022-08-02T17:45:01.065Z,21.30
2022-08-02T17:48:04.274Z,21.20
2022-08-02T17:50:34.338Z,21.10
2022-08-02T17:53:03.300Z,21.00
2022-08-02T17:55:36.935Z,20.80
2022-08-02T17:58:12.764Z,20.80
2022-08-02T18:00:41.908Z,20.80
2022-08-02T18:03:14.208Z,20.70
2022-08-02T18:05:53.463Z,20.60
2022-08-02T18:08:24.898Z,20.50
2022-08-02T18:10:56.098Z,20.40
2022-08-02T18:13:25.519Z,20.30
2022-08-02T18:16:01.899Z,20.10
2022-08-02T18:18:31.582Z,20.00
2022-08-02T18:21:15.411Z,19.90
2022-08-02T18:23:58.544Z,19.70
2022-08-02T18:26:29.558Z,19.60
2022-08-02T18:28:59.841Z,19.50
2022-08-02T18:31:28.972Z,19.40
2022-08-02T18:34:08.546Z,19.30
2022-08-02T18:36:46.917Z,19.10
2022-08-02T18:39:16.944Z,19.10
2022-08-02T18:41:47.910Z,18.90
2022-08-02T18:44:18.823Z,18.90
2022-08-02T18:46:49.306Z,18.80
2022-08-02T18:49:18.351Z,18.70
2022-08-02T18:51:47.284Z,18.60
2022-08-02T18:54:16.585Z,18.50
2022-08-02T18:56:58.370Z,18.40
2022-08-02T18:59:27.297Z,18.30
2022-08-02T19:01:56.196Z,18.20
2022-08-02T19:04:27.566Z,18.20
2022-08-02T19:07:05.465Z,18.10
2022-08-02T19:12:28.603Z,18.00
2022-08-02T19:14:59.319Z,17.90
2022-08-02T19:17:53.868Z,17.80
2022-08-02T19:20:19.490Z,17.80
2022-08-02T19:22:53.534Z,17.70
2022-08-02T19:25:27.818Z,17.70
2022-08-02T19:27:59.883Z,17.60
2022-08-02T19:30:30.028Z,17.60
2022-08-02T19:33:01.598Z,17.50
2022-08-02T19:35:38.641Z,17.50
2022-08-02T19:38:27.886Z,17.40
2022-08-02T19:40:57.566Z,17.40
2022-08-02T19:44:26.075Z,17.20
2022-08-02T19:46:17.190Z,17.20
2022-08-02T19:48:47.449Z,17.10
2022-08-02T19:51:16.978Z,17.10
2022-08-02T19:54:06.084Z,17.00
2022-08-02T19:56:40.718Z,17.00
2022-08-02T19:59:13.147Z,17.00
2022-08-02T20:01:48.527Z,16.90
2022-08-02T20:04:22.177Z,16.80
2022-08-02T20:06:52.623Z,16.80
2022-08-02T20:09:33.560Z,16.80
2022-08-02T20:12:16.653Z,16.70
2022-08-02T20:14:51.246Z,16.70
2022-08-02T20:17:21.379Z,16.70
2022-08-02T20:19:50.459Z,16.70
2022-08-02T20:22:21.330Z,16.60
2022-08-02T20:24:50.324Z,16.60
2022-08-02T20:27:21.781Z,16.60
2022-08-02T20:29:55.277Z,16.60
2022-08-02T20:32:24.400Z,16.60
2022-08-02T20:34:53.577Z,16.70
2022-08-02T20:38:01.473Z,16.80
2022-08-02T20:40:17.001Z,16.90
2022-08-02T20:42:48.458Z,17.00
2022-08-02T20:45:19.779Z,17.10
2022-08-02T20:47:52.519Z,17.20
2022-08-02T20:50:39.370Z,17.20
2022-08-02T20:53:24.103Z,17.20
2022-08-02T20:55:56.789Z,17.10
2022-08-02T20:58:26.505Z,17.00
2022-08-02T21:01:00.011Z,16.90
2022-08-02T21:03:39.276Z,16.90
2022-08-02T21:06:14.898Z,16.80
2022-08-02T21:08:46.424Z,16.80
2022-08-02T21:11:16.929Z,16.70
2022-08-02T21:14:06.538Z,16.70
2022-08-02T21:19:25.700Z,16.50
2022-08-02T21:21:55.849Z,16.50
2022-08-02T21:24:25.618Z,16.50
2022-08-02T21:26:56.269Z,16.40
2022-08-02T21:29:26.360Z,16.50
2022-08-02T21:32:03.548Z,16.60
2022-08-02T21:34:32.548Z,16.70
2022-08-02T21:37:01.563Z,16.70
2022-08-02T21:39:39.071Z,16.80
2022-08-02T21:42:08.192Z,16.70
2022-08-02T21:44:37.770Z,16.70
2022-08-02T21:47:30.534Z,16.60
2022-08-02T21:50:13.739Z,16.50
2022-08-02T21:52:52.319Z,16.40
2022-08-02T21:55:24.320Z,16.40
2022-08-02T21:58:10.776Z,16.40
2022-08-02T22:00:40.467Z,16.30
2022-08-02T22:03:23.132Z,16.30
2022-08-02T22:05:52.528Z,16.30
2022-08-02T22:08:22.785Z,16.30
2022-08-02T22:11:13.453Z,16.40
2022-08-02T22:13:47.667Z,16.50
2022-08-02T22:16:18.510Z,16.40
2022-08-02T22:18:50.389Z,16.40
2022-08-02T22:21:22.884Z,16.40
2022-08-02T22:23:52.382Z,16.20
2022-08-02T22:26:22.298Z,16.10
2022-08-02T22:28:59.248Z,16.10
2022-08-02T22:31:41.248Z,15.90
2022-08-02T22:34:26.896Z,15.90
2022-08-02T22:37:00.502Z,15.80
2022-08-02T22:39:29.467Z,15.80
2022-08-02T22:42:05.408Z,15.80
2022-08-02T22:44:36.399Z,15.80
2022-08-02T22:47:15.006Z,15.80
2022-08-02T22:49:54.371Z,15.70
2022-08-02T22:52:25.648Z,15.70
2022-08-02T22:54:55.244Z,15.60
2022-08-02T22:57:30.404Z,15.60
2022-08-02T22:58:58.898Z,18.10
2022-08-02T22:59:11.606Z,16.60
2022-08-02T23:00:01.277Z,15.60
2022-08-02T23:02:30.326Z,15.60
2022-08-02T23:05:00.795Z,15.50
2022-08-02T23:07:29.885Z,15.50
2022-08-02T23:10:08.476Z,15.50
2022-08-02T23:12:37.473Z,15.40
2022-08-02T23:15:07.575Z,15.40
2022-08-02T23:17:53.955Z,15.40
2022-08-02T23:20:24.648Z,15.30
2022-08-02T23:22:55.655Z,15.20
2022-08-02T23:25:25.155Z,15.20
2022-08-02T23:27:54.246Z,15.10
2022-08-02T23:30:23.335Z,15.10
2022-08-02T23:32:52.298Z,15.10
2022-08-02T23:35:21.268Z,15.10
2022-08-02T23:37:59.297Z,15.00
2022-08-02T23:40:38.672Z,15.00
2022-08-02T23:43:14.703Z,14.90
2022-08-02T23:45:46.478Z,14.90
2022-08-02T23:48:15.798Z,14.90
2022-08-02T23:50:44.814Z,14.80
2022-08-02T23:53:15.267Z,14.70
2022-08-02T23:55:44.308Z,14.70
2022-08-02T23:58:14.667Z,14.70
